Time;durP1;ratioP1;P1;durP2;ratioP2;P2;SDS_P1;SDS_P2;PMS_P1;PMS_P2;Temp;Humidity;BMP_temperature;BMP_pressure;BME280_temperature;BME280_humidity;BME280_pressure;Samples;Min_cycle;Max_cycle;Signal;HPM_P1;HPM_P2
2022/08/19 00:01:25;;;;;;;11.48;10.98;;;;;;;23.40;100.00;100369.41;5051980;28;20028;-69
2022/08/19 00:03:51;;;;;;;11.65;11.15;;;;;;;23.34;100.00;100362.31;5049806;28;20396;-70
2022/08/19 00:06:16;;;;;;;11.95;11.35;;;;;;;23.23;100.00;100380.41;5051589;28;20031;-68
2022/08/19 00:08:42;;;;;;;11.95;11.35;;;;;;;23.07;100.00;100381.41;5051773;28;20048;-68
2022/08/19 00:11:08;;;;;;;11.65;11.10;;;;;;;22.83;100.00;100379.00;5051475;28;20029;-70
2022/08/19 00:13:33;;;;;;;12.27;11.68;;;;;;;22.83;100.00;100387.13;5052085;28;20036;-69
2022/08/19 00:16:00;;;;;;;11.80;11.30;;;;;;;22.85;100.00;100384.19;5051323;28;20159;-69
2022/08/19 00:18:26;;;;;;;11.90;11.30;;;;;;;22.77;100.00;100376.56;5049532;28;20024;-69
2022/08/19 00:20:52;;;;;;;12.25;11.65;;;;;;;23.04;100.00;100382.72;5051550;28;20028;-70
2022/08/19 00:23:18;;;;;;;12.00;11.40;;;;;;;23.02;100.00;100381.34;5050072;28;20021;-69
2022/08/19 00:25:44;;;;;;;12.05;11.45;;;;;;;22.84;100.00;100375.25;5051619;28;20033;-69
2022/08/19 00:28:10;;;;;;;11.70;11.20;;;;;;;23.01;100.00;100364.31;5066778;28;20032;-69
2022/08/19 00:30:36;;;;;;;12.15;11.55;;;;;;;22.84;100.00;100364.44;5058740;28;20024;-69
2022/08/19 00:33:02;;;;;;;12.00;11.40;;;;;;;22.77;100.00;100377.38;5051305;28;20040;-70
2022/08/19 00:35:28;;;;;;;11.73;11.20;;;;;;;23.11;100.00;100375.19;5051412;28;20380;-69
2022/08/19 00:37:54;;;;;;;12.02;11.43;;;;;;;23.04;100.00;100365.66;5066861;28;20020;-69
2022/08/19 00:40:21;;;;;;;11.63;11.10;;;;;;;23.23;100.00;100375.00;5051372;28;20440;-69
2022/08/19 00:42:47;;;;;;;11.70;11.20;;;;;;;23.25;100.00;100372.03;5063893;28;20024;-69
2022/08/19 00:45:17;;;;;;;12.10;11.50;;;;;;;23.28;100.00;100375.03;5050837;28;20037;-69
2022/08/19 00:47:44;;;;;;;12.40;11.80;;;;;;;23.11;100.00;100377.06;5060130;28;20054;-69
2022/08/19 00:50:12;;;;;;;11.70;11.20;;;;;;;22.93;100.00;100382.94;5068502;28;20741;-69
2022/08/19 00:52:44;;;;;;;11.77;11.27;;;;;;;22.85;100.00;100373.38;5051154;28;20025;-69
2022/08/19 00:55:14;;;;;;;11.75;11.20;;;;;;;22.97;100.00;100381.31;5051161;28;20103;-69
2022/08/19 00:57:44;;;;;;;12.00;11.40;;;;;;;23.08;100.00;100374.91;5051694;28;20033;-67
2022/08/19 01:00:13;;;;;;;11.70;11.20;;;;;;;22.97;100.00;100365.09;5059762;28;20068;-69
2022/08/19 01:02:41;;;;;;;11.95;11.35;;;;;;;22.80;100.00;100362.50;5051074;28;20024;-69
2022/08/19 01:05:11;;;;;;;11.77;11.25;;;;;;;22.65;100.00;100363.22;5051657;28;20523;-69
2022/08/19 01:07:40;;;;;;;11.90;11.30;;;;;;;22.86;100.00;100356.91;5050736;28;20025;-69
2022/08/19 01:10:12;;;;;;;12.25;11.65;;;;;;;22.64;100.00;100358.88;5051056;28;20025;-69
2022/08/19 01:12:39;;;;;;;12.07;11.48;;;;;;;23.01;100.00;100353.50;5051181;28;20388;-68
2022/08/19 01:15:11;;;;;;;11.85;11.27;;;;;;;22.94;100.00;100346.69;5055039;28;20036;-69
2022/08/19 01:17:40;;;;;;;11.70;11.18;;;;;;;22.97;100.00;100346.16;5057568;28;20151;-69
2022/08/19 01:20:09;;;;;;;11.68;11.18;;;;;;;23.11;100.00;100358.94;5046752;28;20119;-67
2022/08/19 01:22:42;;;;;;;11.88;11.27;;;;;;;23.08;100.00;100354.06;5051633;28;20017;-69
2022/08/19 01:25:08;;;;;;;11.90;11.30;;;;;;;22.94;100.00;100354.78;5050559;28;20033;-68
2022/08/19 01:27:39;;;;;;;11.73;11.23;;;;;;;22.79;100.00;100356.28;5050967;28;20033;-69
2022/08/19 01:30:06;;;;;;;11.90;11.30;;;;;;;22.96;100.00;100356.16;5051084;28;20104;-69
2022/08/19 01:32:31;;;;;;;11.77;11.23;;;;;;;22.98;100.00;100359.41;5050931;28;20076;-69
2022/08/19 01:34:57;;;;;;;11.60;11.10;;;;;;;23.02;100.00;100354.31;5051736;28;20496;-70
2022/08/19 01:37:23;;;;;;;11.57;11.07;;;;;;;22.80;100.00;100352.50;5053300;28;20025;-69
2022/08/19 01:39:49;;;;;;;11.57;11.07;;;;;;;22.78;100.00;100354.66;5067069;28;20029;-69
2022/08/19 01:42:14;;;;;;;11.80;11.20;;;;;;;22.92;100.00;100354.25;5052717;28;20060;-69
2022/08/19 01:44:40;;;;;;;12.00;11.40;;;;;;;22.77;100.00;100355.75;5054357;28;20116;-69
2022/08/19 01:47:08;;;;;;;11.52;11.02;;;;;;;22.74;100.00;100352.72;5054404;28;20405;-69
2022/08/19 01:49:34;;;;;;;12.13;11.52;;;;;;;22.60;100.00;100366.66;5058208;28;20025;-69
2022/08/19 01:52:01;;;;;;;12.10;11.50;;;;;;;22.38;100.00;100362.41;5054290;28;20052;-69
2022/08/19 01:54:27;;;;;;;11.50;11.00;;;;;;;22.33;100.00;100364.03;5054284;28;20059;-69
2022/08/19 01:56:59;;;;;;;11.90;11.30;;;;;;;22.46;100.00;100367.34;5054697;28;20393;-68
2022/08/19 01:59:24;;;;;;;11.90;11.30;;;;;;;22.44;100.00;100359.50;5053502;28;20100;-69
2022/08/19 02:01:50;;;;;;;11.70;11.20;;;;;;;22.46;100.00;100361.94;5054058;28;20104;-69
2022/08/19 02:04:16;;;;;;;12.60;12.00;;;;;;;22.42;100.00;100355.44;5054020;28;20025;-68
2022/08/19 02:06:41;;;;;;;12.10;11.50;;;;;;;22.48;100.00;100344.41;5053843;28;20020;-69
2022/08/19 02:09:08;;;;;;;12.00;11.40;;;;;;;22.46;100.00;100346.53;5053052;28;20424;-69
2022/08/19 02:11:35;;;;;;;12.30;11.70;;;;;;;22.45;100.00;100344.91;5053773;28;20025;-70
2022/08/19 02:14:05;;;;;;;11.63;11.13;;;;;;;22.38;100.00;100341.63;5063768;28;20071;-68
2022/08/19 02:16:32;;;;;;;12.13;11.52;;;;;;;22.11;100.00;100338.09;5054048;28;20527;-69
2022/08/19 02:19:00;;;;;;;12.00;11.40;;;;;;;22.32;100.00;100345.34;5052654;28;20057;-71
2022/08/19 02:21:26;;;;;;;11.95;11.35;;;;;;;22.13;100.00;100347.63;5053818;28;20151;-69
2022/08/19 02:23:52;;;;;;;12.13;11.52;;;;;;;22.12;100.00;100337.88;5052293;28;20041;-68
2022/08/19 02:26:19;;;;;;;12.05;11.45;;;;;;;22.10;100.00;100345.41;5053694;28;20154;-69
2022/08/19 02:28:44;;;;;;;12.23;11.63;;;;;;;22.36;100.00;100349.16;5054392;28;20477;-70
2022/08/19 02:31:12;;;;;;;12.30;11.70;;;;;;;22.15;100.00;100356.25;5053490;28;20029;-69
2022/08/19 02:33:38;;;;;;;12.15;11.55;;;;;;;22.14;100.00;100368.16;5053130;28;20728;-69
2022/08/19 02:36:05;;;;;;;12.00;11.45;;;;;;;22.25;100.00;100369.88;5053509;28;20065;-68
2022/08/19 02:38:31;;;;;;;12.23;11.63;;;;;;;22.37;100.00;100368.91;5068494;28;20031;-69
2022/08/19 02:40:58;;;;;;;12.10;11.50;;;;;;;22.68;100.00;100367.28;5053407;28;20024;-68
2022/08/19 02:43:25;;;;;;;12.25;11.65;;;;;;;22.46;100.00;100368.16;5053180;28;20048;-68
2022/08/19 02:45:52;;;;;;;11.70;11.20;;;;;;;22.26;100.00;100368.00;5053875;28;20075;-70
2022/08/19 02:48:23;;;;;;;11.75;11.25;;;;;;;22.43;100.00;100373.28;5055295;28;20033;-69
2022/08/19 02:51:00;;;;;;;11.93;11.35;;;;;;;22.46;100.00;100368.16;5052944;28;20119;-69
2022/08/19 02:53:27;;;;;;;12.15;11.55;;;;;;;22.50;100.00;100368.50;5053051;28;20111;-69
2022/08/19 02:55:53;;;;;;;12.02;11.43;;;;;;;22.40;100.00;100380.03;5053085;28;20025;-68
2022/08/19 02:58:21;;;;;;;12.23;11.63;;;;;;;22.23;100.00;100363.91;5053169;28;20029;-69
2022/08/19 03:00:50;;;;;;;12.10;11.50;;;;;;;22.29;100.00;100364.78;5052947;28;20086;-69
2022/08/19 03:03:16;;;;;;;12.20;11.60;;;;;;;22.42;100.00;100367.06;5051870;28;20017;-68
2022/08/19 03:05:43;;;;;;;12.05;11.45;;;;;;;22.44;100.00;100369.50;5052185;28;20435;-71
2022/08/19 03:08:12;;;;;;;12.50;11.90;;;;;;;22.52;100.00;100374.44;5052937;28;20104;-70
2022/08/19 03:10:46;;;;;;;12.40;11.80;;;;;;;22.56;100.00;100367.47;5052839;28;20016;-69
2022/08/19 03:13:16;;;;;;;11.38;10.88;;;;;;;22.49;100.00;100369.56;5053255;28;20440;-68
2022/08/19 03:15:46;;;;;;;11.90;11.40;;;;;;;22.29;100.00;100372.88;5052695;28;20021;-68
2022/08/19 03:18:13;;;;;;;12.20;11.60;;;;;;;22.10;100.00;100374.31;5052834;28;20024;-70
2022/08/19 03:20:47;;;;;;;12.32;11.73;;;;;;;21.84;100.00;100379.41;5052993;28;20070;-69
2022/08/19 03:23:15;;;;;;;11.57;11.07;;;;;;;21.91;100.00;100392.72;5052248;28;20068;-69
2022/08/19 03:25:42;;;;;;;12.30;11.70;;;;;;;22.29;100.00;100389.09;5048304;28;20036;-69
2022/08/19 03:28:13;;;;;;;12.27;11.68;;;;;;;22.64;100.00;100391.31;5052537;28;20025;-67
2022/08/19 03:30:40;;;;;;;12.48;11.88;;;;;;;22.71;100.00;100385.69;5067780;28;20111;-69
2022/08/19 03:33:07;;;;;;;12.07;11.48;;;;;;;22.99;100.00;100381.84;5052377;28;20025;-69
2022/08/19 03:35:36;;;;;;;12.40;11.80;;;;;;;22.70;100.00;100395.69;5052991;28;20028;-69
2022/08/19 03:38:03;;;;;;;12.48;11.88;;;;;;;23.04;100.00;100398.13;5052629;28;20024;-69
2022/08/19 03:40:30;;;;;;;12.50;11.90;;;;;;;23.13;100.00;100404.69;5052112;28;20048;-69
2022/08/19 03:42:56;;;;;;;11.82;11.32;;;;;;;23.38;100.00;100409.47;5052315;28;20044;-69
2022/08/19 03:45:22;;;;;;;11.90;11.35;;;;;;;23.68;100.00;100401.50;5051978;28;20447;-69
2022/08/19 03:47:48;;;;;;;12.40;11.80;;;;;;;24.07;100.00;100417.34;5050520;28;20071;-69
2022/08/19 03:50:13;;;;;;;12.20;11.60;;;;;;;24.15;100.00;100405.19;5051990;28;20436;-67
2022/08/19 03:52:39;;;;;;;12.00;11.40;;;;;;;24.95;100.00;100413.69;5060755;28;20036;-69
2022/08/19 03:55:05;;;;;;;11.50;11.00;;;;;;;25.27;100.00;100408.78;5044995;28;20064;-68
2022/08/19 03:57:32;;;;;;;11.70;11.20;;;;;;;26.18;100.00;100409.53;5066554;28;20033;-68
2022/08/19 03:59:57;;;;;;;11.98;11.43;;;;;;;26.66;100.00;100410.59;5051795;28;20083;-69
2022/08/19 04:02:23;;;;;;;12.07;11.48;;;;;;;26.96;100.00;100414.97;5051519;28;20021;-69
2022/08/19 04:04:48;;;;;;;11.80;11.30;;;;;;;26.90;100.00;100420.72;5052232;28;20086;-67
2022/08/19 04:07:15;;;;;;;12.20;11.60;;;;;;;27.10;100.00;100423.31;5052535;28;20025;-67
2022/08/19 04:09:41;;;;;;;12.52;11.93;;;;;;;27.85;100.00;100424.69;5062326;28;20111;-68
2022/08/19 04:12:07;;;;;;;12.60;12.00;;;;;;;29.16;100.00;100421.06;5060613;28;20048;-69
2022/08/19 04:14:34;;;;;;;11.65;11.15;;;;;;;29.01;100.00;100433.09;5057430;28;20523;-69
2022/08/19 04:17:00;;;;;;;11.60;11.10;;;;;;;30.12;100.00;100429.28;5058689;28;20029;-68
2022/08/19 04:19:29;;;;;;;11.52;11.02;;;;;;;30.89;100.00;100428.31;5054813;28;20602;-68
2022/08/19 04:21:55;;;;;;;11.68;11.18;;;;;;;31.52;100.00;100431.88;5054881;28;20032;-68
2022/08/19 04:24:21;;;;;;;11.70;11.20;;;;;;;31.74;100.00;100434.53;5064968;28;20090;-68
2022/08/19 04:26:48;;;;;;;11.93;11.43;;;;;;;31.61;100.00;100440.94;5059989;28;20450;-68
2022/08/19 04:29:24;;;;;;;11.65;11.15;;;;;;;33.15;100.00;100440.56;5052445;28;20112;-69
2022/08/19 04:31:50;;;;;;;11.68;11.18;;;;;;;32.75;100.00;100442.69;5045821;28;20148;-69
2022/08/19 04:34:22;;;;;;;11.55;11.05;;;;;;;32.45;100.00;100448.06;5061881;28;20032;-68
2022/08/19 04:36:50;;;;;;;11.98;11.48;;;;;;;33.53;100.00;100451.59;5056130;28;20032;-68
2022/08/19 04:44:54;;;;;;;12.00;11.50;;;;;;;34.60;100.00;100453.03;5051200;28;20064;-68
2022/08/19 04:47:19;;;;;;;11.85;11.35;;;;;;;35.05;100.00;100446.78;5051725;28;20021;-68
2022/08/19 04:49:45;;;;;;;12.07;11.57;;;;;;;36.25;96.41;100440.81;5049107;28;20502;-68
2022/08/19 04:52:11;;;;;;;11.80;11.30;;;;;;;36.00;95.89;100433.75;5054673;28;20446;-69
2022/08/19 04:54:36;;;;;;;11.98;11.48;;;;;;;34.57;99.43;100429.72;5050596;28;20029;-68
2022/08/19 04:57:05;;;;;;;11.63;11.13;;;;;;;36.57;96.19;100435.41;5049191;28;20483;-68
2022/08/19 04:59:32;;;;;;;11.50;11.00;;;;;;;36.98;91.67;100439.72;5047893;28;20057;-69
2022/08/19 05:01:57;;;;;;;11.65;11.15;;;;;;;37.25;88.58;100446.34;5050966;28;20033;-69
2022/08/19 05:04:23;;;;;;;11.55;11.05;;;;;;;37.51;87.25;100440.28;5050922;28;20511;-69
2022/08/19 05:06:49;;;;;;;11.77;11.27;;;;;;;37.85;85.10;100439.56;5050396;28;20064;-69
2022/08/19 05:09:15;;;;;;;11.68;11.18;;;;;;;37.78;82.98;100441.31;5050684;28;20043;-68
2022/08/19 05:11:41;;;;;;;11.70;11.20;;;;;;;38.02;83.22;100443.88;5055065;28;20032;-69
2022/08/19 05:14:08;;;;;;;12.07;11.57;;;;;;;38.12;81.64;100435.00;5053378;28;20033;-70
2022/08/19 05:16:34;;;;;;;11.65;11.15;;;;;;;38.69;77.34;100429.81;5054872;28;20446;-69
2022/08/19 05:24:29;;;;;;;11.85;11.35;;;;;;;38.71;79.86;100433.09;5055012;28;20207;-68
2022/08/19 05:26:58;;;;;;;11.90;11.40;;;;;;;39.61;74.06;100436.25;5053125;28;20036;-67
2022/08/19 05:29:27;;;;;;;11.88;11.38;;;;;;;39.17;75.77;100441.47;5054843;28;20029;-68
2022/08/19 05:31:54;;;;;;;12.10;11.60;;;;;;;39.40;74.18;100438.66;5057777;28;20407;-68
2022/08/19 05:34:22;;;;;;;12.80;12.20;;;;;;;39.54;73.63;100441.66;5054524;28;20039;-68
2022/08/19 05:36:50;;;;;;;11.90;11.40;;;;;;;38.81;75.30;100442.75;5055713;28;20033;-68
2022/08/19 05:39:19;;;;;;;11.45;10.95;;;;;;;39.39;72.62;100439.84;5053519;28;20032;-68
2022/08/19 05:41:48;;;;;;;12.07;11.57;;;;;;;40.36;67.45;100437.28;5054794;28;20140;-68
2022/08/19 05:44:15;;;;;;;11.88;11.38;;;;;;;39.30;74.89;100440.09;5053262;28;20041;-67
2022/08/19 05:46:47;;;;;;;11.95;11.45;;;;;;;38.42;76.61;100435.28;5065103;28;20079;-67
2022/08/19 05:49:15;;;;;;;11.95;11.45;;;;;;;40.10;71.10;100440.91;5055458;28;21862;-68
2022/08/19 05:51:42;;;;;;;11.60;11.10;;;;;;;40.77;66.77;100440.97;5058224;28;20040;-68
2022/08/19 05:54:08;;;;;;;11.45;10.95;;;;;;;39.76;70.56;100438.06;5057838;28;20476;-67
2022/08/19 05:56:38;;;;;;;11.13;10.63;;;;;;;40.18;71.84;100444.59;5059080;28;20044;-66
2022/08/19 05:59:08;;;;;;;11.68;11.18;;;;;;;40.00;70.51;100438.78;5063054;28;20028;-67
2022/08/19 06:01:34;;;;;;;11.50;11.00;;;;;;;40.27;70.00;100448.69;5053802;28;20025;-68
2022/08/19 06:04:00;;;;;;;10.93;10.43;;;;;;;40.24;69.27;100448.63;5051598;28;20106;-68
2022/08/19 06:06:26;;;;;;;11.35;10.85;;;;;;;39.96;71.72;100449.06;5054098;28;20063;-67
2022/08/19 06:08:51;;;;;;;11.48;10.98;;;;;;;40.24;68.95;100440.31;5058758;28;20460;-67
2022/08/19 06:11:34;;;;;;;11.55;11.05;;;;;;;40.60;66.09;100445.13;5058545;28;20440;-68
2022/08/19 06:14:04;;;;;;;11.57;11.07;;;;;;;40.66;63.84;100442.81;5055703;28;20045;-68
2022/08/19 06:16:31;;;;;;;11.07;10.57;;;;;;;40.77;64.71;100440.16;5054596;28;20028;-66
2022/08/19 06:18:59;;;;;;;11.00;10.50;;;;;;;41.17;60.93;100444.94;5056284;28;20032;-68
2022/08/19 06:21:27;;;;;;;11.07;10.57;;;;;;;40.84;64.26;100448.59;5060841;28;20028;-68
2022/08/19 06:23:53;;;;;;;11.07;10.57;;;;;;;40.50;62.57;100431.91;5056128;28;20083;-66
2022/08/19 06:26:20;;;;;;;11.07;10.57;;;;;;;40.13;65.97;100431.84;5053898;28;20437;-67
2022/08/19 06:28:47;;;;;;;11.38;10.88;;;;;;;41.47;60.44;100424.50;5054134;28;20089;-67
2022/08/19 06:31:17;;;;;;;11.27;10.77;;;;;;;41.58;55.61;100434.56;5052068;28;20488;-68
2022/08/19 06:33:44;;;;;;;11.38;10.88;;;;;;;41.28;57.97;100443.06;5050040;28;20396;-68
2022/08/19 06:36:33;;;;;;;10.85;10.35;;;;;;;40.87;59.89;100440.25;5051932;28;20025;-69
2022/08/19 06:39:12;;;;;;;11.50;11.00;;;;;;;42.32;55.14;100441.75;5035033;28;20037;-69
2022/08/19 06:41:41;;;;;;;11.30;10.80;;;;;;;42.67;54.18;100437.47;5041614;28;20025;-68
2022/08/19 06:44:07;;;;;;;11.57;11.07;;;;;;;41.87;57.05;100438.34;5048730;28;20028;-69
2022/08/19 06:46:33;;;;;;;11.27;10.77;;;;;;;42.00;54.15;100438.00;5043234;28;20021;-69
2022/08/19 06:48:59;;;;;;;11.02;10.52;;;;;;;41.93;54.14;100444.31;5044345;28;20037;-69
2022/08/19 06:51:26;;;;;;;11.40;10.90;;;;;;;42.43;51.50;100442.56;5044759;28;20032;-71
2022/08/19 06:53:54;;;;;;;11.02;10.52;;;;;;;42.42;50.59;100446.56;5051817;28;20050;-71
2022/08/19 06:56:24;;;;;;;11.13;10.63;;;;;;;41.58;51.37;100437.34;5048880;28;20575;-71
2022/08/19 06:58:52;;;;;;;11.07;10.57;;;;;;;41.47;53.34;100438.44;5046196;28;20040;-70
2022/08/19 07:01:20;;;;;;;11.18;10.68;;;;;;;41.87;54.00;100443.91;5050200;28;20388;-70
2022/08/19 07:03:46;;;;;;;11.02;10.52;;;;;;;40.00;58.21;100431.25;5046262;28;20040;-71
2022/08/19 07:06:15;;;;;;;11.60;11.10;;;;;;;40.58;61.95;100435.59;5046982;28;20534;-71
2022/08/19 07:08:42;;;;;;;11.25;10.75;;;;;;;41.91;54.62;100430.00;5045792;28;20065;-71
2022/08/19 07:11:10;;;;;;;11.30;10.80;;;;;;;40.58;57.96;100433.59;5051043;28;20044;-70
2022/08/19 07:13:37;;;;;;;11.52;11.02;;;;;;;39.93;60.92;100428.38;5048973;28;20025;-70
2022/08/19 07:16:08;;;;;;;11.35;10.85;;;;;;;41.33;54.90;100428.00;5047876;28;20032;-72
2022/08/19 07:18:34;;;;;;;11.40;10.90;;;;;;;41.99;51.31;100433.59;5040270;28;20036;-73
2022/08/19 07:21:16;;;;;;;11.00;10.50;;;;;;;41.18;53.01;100434.59;5047963;28;20043;-73
2022/08/19 07:23:42;;;;;;;11.40;10.90;;;;;;;41.01;53.95;100439.63;5053130;28;20063;-73
2022/08/19 07:26:14;;;;;;;11.38;10.88;;;;;;;41.37;52.94;100437.97;5046627;28;20032;-72
2022/08/19 07:28:42;;;;;;;11.15;10.65;;;;;;;41.74;51.53;100433.47;5046816;28;20021;-71
2022/08/19 07:31:12;;;;;;;10.95;10.45;;;;;;;42.45;50.97;100434.59;5048723;28;20488;-69
2022/08/19 07:33:37;;;;;;;11.25;10.75;;;;;;;43.06;48.02;100440.38;5038142;28;20029;-69
2022/08/19 07:36:11;;;;;;;11.43;10.93;;;;;;;42.39;47.81;100435.41;5049867;28;20086;-71
2022/08/19 07:38:39;;;;;;;11.15;10.65;;;;;;;41.72;48.74;100439.44;5038153;28;20456;-70
2022/08/19 07:41:05;;;;;;;10.98;10.48;;;;;;;43.09;47.33;100444.34;5049824;28;20036;-69
2022/08/19 07:43:31;;;;;;;11.07;10.57;;;;;;;42.36;47.75;100438.97;5056831;28;20021;-70
2022/08/19 07:45:57;;;;;;;10.88;10.38;;;;;;;42.82;45.72;100441.91;5035397;28;20535;-71
2022/08/19 07:48:27;;;;;;;11.13;10.63;;;;;;;42.00;47.98;100438.00;5048214;28;20036;-71
2022/08/19 07:50:57;;;;;;;11.00;10.50;;;;;;;42.23;46.71;100438.50;5048025;28;20024;-68
2022/08/19 07:53:24;;;;;;;10.93;10.43;;;;;;;42.87;44.82;100444.31;5055781;28;20479;-69
2022/08/19 07:55:50;;;;;;;10.77;10.27;;;;;;;43.23;44.77;100439.56;5046210;28;20043;-68
2022/08/19 07:58:19;;;;;;;10.85;10.35;;;;;;;42.99;45.78;100438.38;5048236;28;20406;-69
2022/08/19 08:00:47;;;;;;;11.38;10.88;;;;;;;41.91;46.83;100430.78;5040870;28;20124;-70
2022/08/19 08:03:16;;;;;;;11.23;10.73;;;;;;;43.57;43.34;100436.38;5060222;28;20085;-69
2022/08/19 08:11:11;;;;;;;11.45;10.95;;;;;;;42.92;44.14;100431.97;5051151;28;20510;-68
2022/08/19 08:13:36;;;;;;;11.23;10.73;;;;;;;42.08;45.42;100431.25;5046423;28;20062;-68
2022/08/19 08:16:02;;;;;;;11.82;11.32;;;;;;;41.90;46.64;100428.38;5046950;28;20504;-70
2022/08/19 08:18:28;;;;;;;11.27;10.77;;;;;;;42.41;46.08;100419.88;5047929;28;20089;-69
2022/08/19 08:20:55;;;;;;;10.80;10.30;;;;;;;40.68;47.52;100417.41;5047901;28;20074;-69
2022/08/19 08:23:25;;;;;;;11.38;10.88;;;;;;;40.63;49.72;100424.13;5049290;28;20044;-69
2022/08/19 08:25:54;;;;;;;11.40;10.90;;;;;;;40.75;49.57;100428.59;5053578;28;20060;-70
2022/08/19 08:28:20;;;;;;;11.30;10.80;;;;;;;40.35;50.57;100424.56;5063015;28;20504;-69
2022/08/19 08:30:48;;;;;;;11.30;10.80;;;;;;;40.33;50.65;100429.72;5047983;28;20047;-71
2022/08/19 08:33:18;;;;;;;11.45;10.95;;;;;;;37.84;58.27;100401.16;5052257;28;20112;-71
2022/08/19 08:35:45;;;;;;;11.45;10.95;;;;;;;40.36;52.45;100417.03;5052697;28;20017;-70
2022/08/19 08:38:11;;;;;;;11.90;11.40;;;;;;;38.02;62.35;100405.09;5046241;28;20087;-72
2022/08/19 08:40:53;;;;;;;11.75;11.25;;;;;;;38.42;60.01;100403.97;5038444;28;20104;-73
2022/08/19 08:43:30;;;;;;;12.30;11.73;;;;;;;39.07;59.87;100403.19;5049351;28;20489;-72
2022/08/19 08:46:04;;;;;;;11.63;11.13;;;;;;;38.54;56.81;100392.72;5052984;28;20049;-70
2022/08/19 08:48:46;;;;;;;11.68;11.18;;;;;;;38.93;56.60;100392.66;5062428;28;20036;-72
2022/08/19 08:51:27;;;;;;;12.38;11.77;;;;;;;39.38;53.12;100380.75;5050730;28;20025;-70
2022/08/19 08:53:54;;;;;;;11.32;10.82;;;;;;;39.53;51.02;100384.53;5045083;28;20060;-70
2022/08/19 08:56:19;;;;;;;11.85;11.35;;;;;;;39.22;54.77;100392.00;5050820;28;20107;-70
2022/08/19 08:58:59;;;;;;;12.10;11.60;;;;;;;37.48;57.93;100389.25;5053132;28;20242;-71
2022/08/19 09:01:25;;;;;;;11.95;11.45;;;;;;;38.40;55.72;100397.97;5051405;28;20254;-70
2022/08/19 09:03:51;;;;;;;11.63;11.13;;;;;;;37.33;59.33;100388.09;5052693;28;20131;-71
2022/08/19 09:06:43;;;;;;;11.48;10.98;;;;;;;38.45;57.31;100396.91;5048843;28;20085;-71
2022/08/19 09:09:38;;;;;;;10.90;10.40;;;;;;;37.36;57.36;100396.84;5043474;28;20466;-71
2022/08/19 09:12:13;;;;;;;12.02;11.52;;;;;;;36.42;63.36;100396.31;5040205;28;20124;-71
2022/08/19 09:14:53;;;;;;;11.68;11.18;;;;;;;37.69;62.83;100388.94;5047764;28;20411;-71
2022/08/19 09:17:33;;;;;;;11.35;10.85;;;;;;;37.17;63.98;100384.53;5050585;28;20025;-70
2022/08/19 09:20:22;;;;;;;11.55;11.05;;;;;;;37.16;62.20;100371.81;5044813;28;20029;-70
2022/08/19 09:22:49;;;;;;;11.50;11.00;;;;;;;36.59;60.96;100383.38;5052566;28;20100;-71
2022/08/19 09:25:17;;;;;;;12.02;11.50;;;;;;;36.49;61.88;100388.22;5049954;28;20025;-70
2022/08/19 09:27:44;;;;;;;11.38;10.88;;;;;;;35.23;66.63;100383.94;5052289;28;20028;-70
2022/08/19 09:30:19;;;;;;;10.88;10.38;;;;;;;36.66;62.33;100378.84;5041701;28;20032;-67
2022/08/19 09:32:45;;;;;;;11.00;10.50;;;;;;;37.66;56.20;100380.53;5052788;28;20036;-68
2022/08/19 09:35:12;;;;;;;11.10;10.60;;;;;;;36.54;61.80;100387.19;5053011;28;20057;-68
2022/08/19 09:37:38;;;;;;;11.30;10.80;;;;;;;37.42;59.54;100389.88;5054644;28;20033;-68
2022/08/19 09:40:04;;;;;;;11.68;11.18;;;;;;;36.04;61.56;100373.88;5057095;28;20036;-67
2022/08/19 09:42:30;;;;;;;11.02;10.52;;;;;;;37.06;56.63;100375.13;5054340;28;20071;-67
2022/08/19 09:44:56;;;;;;;11.02;10.52;;;;;;;35.78;61.26;100380.59;5064539;28;20060;-69
2022/08/19 09:47:21;;;;;;;11.07;10.57;;;;;;;38.00;54.42;100390.81;5054381;28;20090;-68
2022/08/19 09:49:48;;;;;;;10.98;10.48;;;;;;;37.03;58.65;100387.72;5052270;28;20048;-68
2022/08/19 09:52:15;;;;;;;11.10;10.60;;;;;;;36.44;60.50;100391.28;5050299;28;20206;-68
2022/08/19 09:54:41;;;;;;;10.90;10.40;;;;;;;34.82;65.42;100380.19;5057124;28;20515;-69
2022/08/19 09:57:07;;;;;;;11.10;10.60;;;;;;;35.81;65.09;100393.69;5054762;28;20033;-67
2022/08/19 09:59:33;;;;;;;11.00;10.50;;;;;;;36.64;59.04;100391.38;5059066;28;20052;-67
2022/08/19 10:01:59;;;;;;;11.10;10.60;;;;;;;35.97;60.78;100388.28;5052850;28;20078;-68
2022/08/19 10:05:47;;;;;;;11.35;10.85;;;;;;;36.09;61.03;100398.50;5052556;28;20037;-69
2022/08/19 10:07:10;;;;;;;11.00;10.50;;;;;;;36.44;59.28;100382.19;5053827;28;20082;-69
2022/08/19 10:09:36;;;;;;;11.15;10.65;;;;;;;34.91;67.55;100388.41;5052578;28;20059;-68
2022/08/19 10:12:04;;;;;;;11.07;10.57;;;;;;;35.38;67.34;100386.00;5054845;28;20122;-69
2022/08/19 10:14:30;;;;;;;11.13;10.63;;;;;;;34.57;71.65;100387.56;5052460;28;20021;-69
2022/08/19 10:16:56;;;;;;;11.20;10.70;;;;;;;34.01;78.10;100378.81;5051528;28;20028;-68
2022/08/19 10:19:22;;;;;;;11.45;10.95;;;;;;;35.57;70.30;100385.47;5053994;28;20040;-67
2022/08/19 10:21:47;;;;;;;11.20;10.70;;;;;;;35.00;73.00;100380.81;5054903;28;20482;-68
2022/08/19 10:24:13;;;;;;;11.73;11.23;;;;;;;34.51;74.50;100375.16;5057264;28;20043;-70
2022/08/19 10:26:44;;;;;;;11.38;10.88;;;;;;;32.12;84.30;100388.13;5057349;28;20380;-68
2022/08/19 10:29:11;;;;;;;11.80;11.30;;;;;;;32.98;82.53;100379.00;5038729;28;20036;-69
2022/08/19 10:31:37;;;;;;;11.40;10.90;;;;;;;33.30;80.90;100370.47;5049120;28;20042;-70
2022/08/19 10:34:03;;;;;;;12.35;11.75;;;;;;;34.10;79.65;100370.50;5049896;28;20112;-69
2022/08/19 10:36:35;;;;;;;11.82;11.32;;;;;;;34.50;77.28;100374.34;5051945;28;20033;-68
2022/08/19 10:39:09;;;;;;;12.10;11.52;;;;;;;34.28;75.82;100360.94;5049604;28;20025;-71
2022/08/19 10:41:36;;;;;;;;;;;;;;;34.76;77.27;100363.06;5049513;28;20032;-70
2022/08/19 10:44:05;;;;;;;11.55;11.05;;;;;;;34.33;78.43;100364.28;5051303;28;19924;-70
2022/08/19 10:46:33;;;;;;;11.80;11.30;;;;;;;33.73;80.63;100367.50;5058575;28;20024;-69
2022/08/19 10:49:01;;;;;;;12.57;11.98;;;;;;;34.10;77.16;100363.03;5044801;28;20112;-69
2022/08/19 10:54:11;;;;;;;12.23;11.63;;;;;;;34.11;75.02;100361.91;5047229;28;20070;-68
2022/08/19 10:56:52;;;;;;;11.60;11.10;;;;;;;33.60;75.36;100360.31;5046620;28;20025;-71
2022/08/19 10:59:23;;;;;;;11.32;10.82;;;;;;;32.79;81.26;100353.81;5048532;28;20033;-70
2022/08/19 11:01:50;;;;;;;11.80;11.30;;;;;;;33.07;80.18;100356.19;5047592;28;20025;-68
2022/08/19 11:04:17;;;;;;;12.43;11.82;;;;;;;31.44;86.54;100355.88;5048088;28;20024;-69
2022/08/19 11:06:47;;;;;;;11.73;11.23;;;;;;;33.06;83.29;100349.88;5048311;28;20047;-69
2022/08/19 11:09:24;;;;;;;12.40;11.80;;;;;;;33.74;79.77;100347.09;5043729;28;20059;-70
2022/08/19 11:11:53;;;;;;;11.73;11.23;;;;;;;34.07;78.02;100341.66;5057789;28;20086;-70
2022/08/19 11:14:20;;;;;;;11.60;11.10;;;;;;;34.18;76.19;100347.59;5048140;28;20032;-69
2022/08/19 11:16:47;;;;;;;11.43;10.93;;;;;;;34.29;76.98;100343.25;5040876;28;20033;-69
2022/08/19 11:19:13;;;;;;;12.50;11.90;;;;;;;33.91;76.38;100346.19;5043975;28;20032;-69
2022/08/19 11:21:42;;;;;;;11.65;11.15;;;;;;;34.34;76.00;100346.63;5053160;28;20036;-69
2022/08/19 11:24:19;;;;;;;11.95;11.43;;;;;;;34.52;76.01;100338.19;5048524;28;20369;-70
2022/08/19 11:26:45;;;;;;;11.82;11.32;;;;;;;34.51;75.69;100331.88;5053924;28;20025;-68
2022/08/19 11:29:12;;;;;;;11.45;10.95;;;;;;;34.10;75.31;100324.50;5044924;28;20033;-70
2022/08/19 11:31:44;;;;;;;12.27;11.68;;;;;;;33.37;75.37;100332.25;5044691;28;20029;-68